createdAt,value
2019-02-26T00:01:53.427Z,3.50
2019-02-26T00:04:21.038Z,11.60
2019-02-26T00:06:49.267Z,5.30
2019-02-26T00:09:18.026Z,3.30
2019-02-26T00:11:43.241Z,3.40
2019-02-26T00:14:15.530Z,3.73
2019-02-26T00:16:39.969Z,3.73
2019-02-26T00:19:09.649Z,3.17
2019-02-26T00:21:35.572Z,10.60
2019-02-26T00:24:04.873Z,7.83
2019-02-26T00:26:30.748Z,5.60
2019-02-26T00:29:01.857Z,3.70
2019-02-26T00:31:28.747Z,3.90
2019-02-26T00:33:57.415Z,3.30
2019-02-26T00:36:27.020Z,4.30
2019-02-26T00:38:56.013Z,3.70
2019-02-26T00:41:22.914Z,4.60
2019-02-26T00:43:53.176Z,4.30
2019-02-26T00:46:17.503Z,4.17
2019-02-26T00:48:45.063Z,3.27
2019-02-26T00:51:12.627Z,3.70
2019-02-26T00:53:40.200Z,3.80
2019-02-26T00:56:09.755Z,5.93
2019-02-26T00:58:38.884Z,3.60
2019-02-26T01:01:02.988Z,3.30
2019-02-26T01:03:30.543Z,3.73
2019-02-26T01:05:59.195Z,3.00
2019-02-26T01:08:25.719Z,8.73
2019-02-26T01:10:53.275Z,2.50
2019-02-26T01:13:22.478Z,2.90
2019-02-26T01:15:48.444Z,2.90
2019-02-26T01:18:17.682Z,5.37
2019-02-26T01:20:48.271Z,13.87
2019-02-26T01:23:12.163Z,9.73
2019-02-26T01:25:39.724Z,3.73
2019-02-26T01:28:07.284Z,3.67
2019-02-26T01:30:36.202Z,2.77
2019-02-26T01:33:05.610Z,3.07
2019-02-26T01:35:33.152Z,4.30
2019-02-26T01:38:01.116Z,2.60
2019-02-26T01:40:28.679Z,2.87
2019-02-26T01:43:00.495Z,13.53
2019-02-26T01:45:27.118Z,3.30
2019-02-26T01:47:54.364Z,27.73
2019-02-26T01:50:24.624Z,2.47
2019-02-26T01:52:54.004Z,2.30
2019-02-26T01:55:20.766Z,2.20
2019-02-26T01:57:47.410Z,2.43
2019-02-26T02:00:18.882Z,2.70
2019-02-26T02:02:48.389Z,7.57
2019-02-26T02:05:15.968Z,3.10
2019-02-26T02:07:46.055Z,2.30
2019-02-26T02:10:13.764Z,2.20
2019-02-26T02:12:41.579Z,2.57
2019-02-26T02:15:12.389Z,3.07
2019-02-26T02:17:40.054Z,2.80
2019-02-26T02:20:07.990Z,3.23
2019-02-26T02:22:35.301Z,2.47
2019-02-26T02:25:02.068Z,2.97
2019-02-26T02:27:31.015Z,2.37
2019-02-26T02:29:57.780Z,2.20
2019-02-26T02:32:28.222Z,2.40
2019-02-26T02:34:58.347Z,1.97
2019-02-26T02:37:23.901Z,2.20
2019-02-26T02:39:48.656Z,2.90
2019-02-26T02:42:19.148Z,2.53
2019-02-26T02:44:46.891Z,3.27
2019-02-26T02:47:13.347Z,2.00
2019-02-26T02:49:44.391Z,1.70
2019-02-26T02:52:11.858Z,1.80
2019-02-26T02:54:41.260Z,1.70
2019-02-26T02:57:09.944Z,1.80
2019-02-26T02:59:37.362Z,1.73
2019-02-26T03:02:03.128Z,2.07
2019-02-26T03:04:31.684Z,1.90
2019-02-26T03:07:00.548Z,1.70
2019-02-26T03:09:25.891Z,1.60
2019-02-26T03:11:55.031Z,5.47
2019-02-26T03:14:23.928Z,5.17
2019-02-26T03:16:53.514Z,19.80
2019-02-26T03:19:19.108Z,5.37
2019-02-26T03:21:47.275Z,9.30
2019-02-26T03:24:14.276Z,7.37
2019-02-26T03:26:41.843Z,6.70
2019-02-26T03:29:10.346Z,9.07
2019-02-26T03:31:40.541Z,10.77
2019-02-26T03:34:10.412Z,9.30
2019-02-26T03:36:34.293Z,5.80
2019-02-26T03:39:02.639Z,5.97
2019-02-26T03:41:29.087Z,6.00
2019-02-26T03:43:58.535Z,8.20
2019-02-26T03:46:23.588Z,5.80
2019-02-26T03:48:51.137Z,5.67
2019-02-26T03:51:20.600Z,5.50
2019-02-26T03:53:48.915Z,5.73
2019-02-26T03:56:18.471Z,7.03
2019-02-26T03:58:44.949Z,5.90
2019-02-26T04:01:13.656Z,5.40
2019-02-26T04:03:42.488Z,4.97
2019-02-26T04:06:10.095Z,4.97
2019-02-26T04:08:37.635Z,5.90
2019-02-26T04:11:05.211Z,5.30
2019-02-26T04:16:32.359Z,5.43
2019-02-26T04:18:58.323Z,4.47
2019-02-26T04:21:25.854Z,4.57
2019-02-26T04:23:53.411Z,4.40
2019-02-26T04:26:36.562Z,4.30
2019-02-26T04:29:05.608Z,3.33
2019-02-26T04:31:44.543Z,3.40
2019-02-26T04:34:10.665Z,4.00
2019-02-26T04:39:56.759Z,3.75
2019-02-26T04:45:33.078Z,3.30
2019-02-26T04:48:01.547Z,2.90
2019-02-26T04:50:32.467Z,3.60
2019-02-26T04:52:59.763Z,2.30
2019-02-26T04:55:24.259Z,2.70
2019-02-26T04:57:53.998Z,2.43
2019-02-26T05:00:19.392Z,2.50
2019-02-26T05:02:46.951Z,2.57
2019-02-26T05:05:14.475Z,2.47
2019-02-26T05:07:44.480Z,2.57
2019-02-26T05:10:09.611Z,2.00
2019-02-26T05:12:39.947Z,2.50
2019-02-26T05:15:04.740Z,2.30
2019-02-26T05:17:33.274Z,2.90
2019-02-26T05:19:59.871Z,1.97
2019-02-26T05:22:28.307Z,2.20
2019-02-26T05:24:55.010Z,2.27
2019-02-26T05:27:24.853Z,2.10
2019-02-26T05:29:52.525Z,2.13
2019-02-26T05:32:17.711Z,2.40
2019-02-26T05:34:47.350Z,3.00
2019-02-26T05:37:13.959Z,3.57
2019-02-26T05:39:42.910Z,3.43
2019-02-26T05:42:08.043Z,3.10
2019-02-26T05:44:36.364Z,3.10
2019-02-26T05:47:03.919Z,3.40
2019-02-26T05:49:34.366Z,2.93
2019-02-26T05:52:01.461Z,2.93
2019-02-26T05:54:26.646Z,3.10
2019-02-26T05:56:54.206Z,3.40
2019-02-26T05:59:21.949Z,3.63
2019-02-26T06:01:53.327Z,4.17
2019-02-26T06:04:20.698Z,3.30
2019-02-26T06:06:50.258Z,3.50
2019-02-26T06:09:14.495Z,3.20
2019-02-26T06:11:46.902Z,3.73
2019-02-26T06:14:12.636Z,3.23
2019-02-26T06:16:38.223Z,2.90
2019-02-26T06:19:06.058Z,3.40
2019-02-26T06:21:33.359Z,3.30
2019-02-26T06:24:00.887Z,3.30
2019-02-26T06:26:32.651Z,4.40
2019-02-26T06:28:57.048Z,5.70
2019-02-26T06:31:25.102Z,5.83
2019-02-26T06:33:52.171Z,3.80
2019-02-26T06:36:21.496Z,3.30
2019-02-26T06:38:49.703Z,3.77
2019-02-26T06:41:14.902Z,3.30
2019-02-26T06:43:45.669Z,3.70
2019-02-26T06:46:12.331Z,4.73
2019-02-26T06:48:37.627Z,5.63
2019-02-26T06:51:07.204Z,7.67
2019-02-26T06:53:34.320Z,8.30
2019-02-26T06:56:01.857Z,8.20
2019-02-26T06:58:29.420Z,9.80
2019-02-26T07:00:56.963Z,9.53
2019-02-26T07:03:24.987Z,11.27
2019-02-26T07:05:52.873Z,8.73
2019-02-26T07:08:22.002Z,10.47
2019-02-26T07:10:48.787Z,7.80
2019-02-26T07:13:16.323Z,15.40
2019-02-26T07:15:45.456Z,5.70
2019-02-26T07:18:16.449Z,6.53
2019-02-26T07:20:46.477Z,5.90
2019-02-26T07:23:08.791Z,6.93
2019-02-26T07:25:36.996Z,5.57
2019-02-26T07:28:02.994Z,4.73
2019-02-26T07:30:30.175Z,4.03
2019-02-26T07:32:57.734Z,7.50
2019-02-26T07:35:25.289Z,9.10
2019-02-26T07:37:54.550Z,7.43
2019-02-26T07:40:20.447Z,6.60
2019-02-26T07:42:49.203Z,6.83
2019-02-26T07:45:19.675Z,5.50
2019-02-26T07:47:45.233Z,6.53
2019-02-26T07:50:14.318Z,4.65
2019-02-26T07:52:39.923Z,4.90
2019-02-26T07:55:09.031Z,7.60
2019-02-26T07:57:35.996Z,11.60
2019-02-26T08:00:04.287Z,7.17
2019-02-26T08:02:32.537Z,8.07
2019-02-26T08:04:59.419Z,6.13
2019-02-26T08:07:28.474Z,5.30
2019-02-26T08:09:55.328Z,6.10
2019-02-26T08:12:22.887Z,5.33
2019-02-26T08:14:50.442Z,5.07
2019-02-26T08:17:17.974Z,5.70
2019-02-26T08:19:47.280Z,5.30
2019-02-26T08:22:13.871Z,4.83
2019-02-26T08:24:41.426Z,4.90
2019-02-26T08:27:11.065Z,6.07
2019-02-26T08:29:36.555Z,5.03
2019-02-26T08:32:04.090Z,5.20
2019-02-26T08:34:32.643Z,5.43
2019-02-26T08:37:00.175Z,6.17
2019-02-26T08:39:27.734Z,5.77
2019-02-26T08:42:04.071Z,6.20
2019-02-26T08:44:31.629Z,7.50
2019-02-26T08:46:59.165Z,6.93
2019-02-26T08:49:26.724Z,7.00
2019-02-26T08:51:54.279Z,8.30
2019-02-26T08:54:23.761Z,7.60
2019-02-26T08:56:49.410Z,8.73
2019-02-26T08:59:17.863Z,8.40
2019-02-26T09:01:44.538Z,8.17
2019-02-26T09:04:12.716Z,8.30
2019-02-26T09:06:39.670Z,8.60
2019-02-26T09:09:07.963Z,8.50
2019-02-26T09:11:36.961Z,8.70
2019-02-26T09:14:04.895Z,7.63
2019-02-26T09:16:32.685Z,8.37
2019-02-26T09:18:58.486Z,8.70
2019-02-26T09:21:26.792Z,8.60
2019-02-26T09:23:56.930Z,8.00
2019-02-26T09:26:21.923Z,8.87
2019-02-26T09:28:50.078Z,8.63
2019-02-26T09:31:17.047Z,9.30
2019-02-26T09:33:45.511Z,9.57
2019-02-26T09:36:14.874Z,8.80
2019-02-26T09:38:41.958Z,9.40
2019-02-26T09:41:10.009Z,10.70
2019-02-26T09:43:36.170Z,11.10
2019-02-26T09:46:04.017Z,10.07
2019-02-26T09:48:31.182Z,10.57
2019-02-26T09:50:58.716Z,10.10
2019-02-26T09:53:26.258Z,10.40
2019-02-26T09:55:53.829Z,10.70
2019-02-26T09:58:23.503Z,10.30
2019-02-26T10:00:51.157Z,9.90
2019-02-26T10:03:17.307Z,9.20
2019-02-26T10:05:45.937Z,9.13
2019-02-26T10:08:12.559Z,10.87
2019-02-26T10:10:40.095Z,9.70
2019-02-26T10:13:07.650Z,9.80
2019-02-26T10:15:37.317Z,9.70
2019-02-26T10:18:06.182Z,10.30
2019-02-26T10:20:31.845Z,9.20
2019-02-26T10:23:00.766Z,8.43
2019-02-26T10:25:26.421Z,9.40
2019-02-26T10:27:53.379Z,9.10
2019-02-26T10:30:20.952Z,8.80
2019-02-26T10:32:48.489Z,8.00
2019-02-26T10:35:21.339Z,9.30
2019-02-26T10:37:47.434Z,8.60
2019-02-26T10:40:16.987Z,8.63
2019-02-26T10:42:43.541Z,9.07
2019-02-26T10:45:12.875Z,10.10
2019-02-26T10:47:40.403Z,9.97
2019-02-26T10:50:16.333Z,10.43
2019-02-26T10:52:43.125Z,10.63
2019-02-26T10:55:12.898Z,10.60
2019-02-26T10:57:38.575Z,11.30
2019-02-26T11:00:08.923Z,12.23
2019-02-26T11:02:34.334Z,13.70
2019-02-26T11:05:02.666Z,12.63
2019-02-26T11:07:31.899Z,13.67
2019-02-26T11:09:58.911Z,13.40
2019-02-26T11:12:27.913Z,13.20
2019-02-26T11:14:53.030Z,12.30
2019-02-26T11:17:21.412Z,11.30
2019-02-26T11:19:48.191Z,12.80
2019-02-26T11:22:18.156Z,11.90
2019-02-26T11:24:43.339Z,11.27
2019-02-26T11:27:10.885Z,13.00
2019-02-26T11:29:40.661Z,13.30
2019-02-26T11:32:07.830Z,12.83
2019-02-26T11:34:35.694Z,13.10
2019-02-26T11:37:03.306Z,12.03
2019-02-26T11:39:29.831Z,12.60
2019-02-26T11:41:59.382Z,12.97
2019-02-26T11:44:27.703Z,11.50
2019-02-26T11:46:56.299Z,12.57
2019-02-26T11:49:21.860Z,11.90
2019-02-26T11:51:49.319Z,12.67
2019-02-26T11:54:17.688Z,14.67
2019-02-26T11:56:44.754Z,13.43
2019-02-26T11:59:14.884Z,12.10
2019-02-26T12:01:42.084Z,12.70
2019-02-26T12:04:11.323Z,14.53
2019-02-26T12:06:37.913Z,14.07
2019-02-26T12:09:06.124Z,12.70
2019-02-26T12:11:33.131Z,13.17
2019-02-26T12:14:00.691Z,12.30
2019-02-26T12:16:28.566Z,12.97
2019-02-26T12:18:55.915Z,13.97
2019-02-26T12:21:25.200Z,14.27
2019-02-26T12:23:51.064Z,13.60
2019-02-26T12:26:19.204Z,14.07
2019-02-26T12:28:46.292Z,12.57
2019-02-26T12:31:13.831Z,12.80
2019-02-26T12:33:41.366Z,13.13
2019-02-26T12:36:10.379Z,13.63
2019-02-26T12:38:37.523Z,12.50
2019-02-26T12:41:08.907Z,12.40
2019-02-26T12:43:36.477Z,12.77
2019-02-26T12:46:02.128Z,12.80
2019-02-26T12:48:28.871Z,14.70
2019-02-26T12:50:58.487Z,13.33
2019-02-26T12:53:24.773Z,12.83
2019-02-26T12:55:54.284Z,14.60
2019-02-26T12:58:21.359Z,12.90
2019-02-26T13:00:47.541Z,13.57
2019-02-26T13:03:15.785Z,14.80
2019-02-26T13:05:45.782Z,14.27
2019-02-26T13:10:38.656Z,13.67
2019-02-26T13:13:07.506Z,14.10
2019-02-26T13:15:33.123Z,14.47
2019-02-26T13:18:00.690Z,15.13
2019-02-26T13:20:28.265Z,15.80
2019-02-26T13:22:58.713Z,14.93
2019-02-26T13:25:26.858Z,14.67
2019-02-26T13:27:51.063Z,16.73
2019-02-26T13:30:24.089Z,16.87
2019-02-26T13:32:57.357Z,14.57
2019-02-26T13:35:19.234Z,14.90
2019-02-26T13:37:46.803Z,14.90
2019-02-26T13:40:14.369Z,15.83
2019-02-26T13:42:41.915Z,14.83
2019-02-26T13:45:09.487Z,15.43
2019-02-26T13:47:37.019Z,14.33
2019-02-26T13:50:05.311Z,15.27
2019-02-26T13:52:32.846Z,15.00
2019-02-26T13:55:01.396Z,13.80
2019-02-26T13:57:28.942Z,14.70
2019-02-26T13:59:56.491Z,16.17
2019-02-26T14:02:24.062Z,15.40
2019-02-26T14:04:51.607Z,14.67
2019-02-26T14:07:19.180Z,15.03
2019-02-26T14:09:46.999Z,16.50
2019-02-26T14:12:15.524Z,17.10
2019-02-26T14:14:43.071Z,18.13
2019-02-26T14:17:10.906Z,15.83
2019-02-26T14:19:39.228Z,15.40
2019-02-26T14:22:06.868Z,16.77
2019-02-26T14:24:35.623Z,15.43
2019-02-26T14:27:03.168Z,15.23
2019-02-26T14:29:31.512Z,18.00
2019-02-26T14:31:59.073Z,15.60
2019-02-26T14:34:26.639Z,14.10
2019-02-26T14:36:55.759Z,15.50
2019-02-26T14:39:21.834Z,14.43
2019-02-26T14:41:49.379Z,14.37
2019-02-26T14:44:16.952Z,13.93
2019-02-26T14:46:44.534Z,14.03
2019-02-26T14:49:12.114Z,14.23
2019-02-26T14:51:40.422Z,14.47
2019-02-26T14:54:08.003Z,15.90
2019-02-26T14:56:35.631Z,14.70
2019-02-26T14:59:03.194Z,13.90
2019-02-26T15:01:30.729Z,15.00
2019-02-26T15:03:58.423Z,15.03
2019-02-26T15:06:25.979Z,15.87
2019-02-26T15:08:53.549Z,14.90
2019-02-26T15:11:21.094Z,13.33
2019-02-26T15:13:48.688Z,14.00
2019-02-26T15:16:16.294Z,14.03
2019-02-26T15:18:43.837Z,14.20
2019-02-26T15:21:12.359Z,14.10
2019-02-26T15:23:39.894Z,14.13
2019-02-26T15:26:07.463Z,13.30
2019-02-26T15:28:35.004Z,13.53
2019-02-26T15:31:02.572Z,15.90
2019-02-26T15:33:30.112Z,14.50
2019-02-26T15:35:57.679Z,13.60
2019-02-26T15:38:25.223Z,14.20
2019-02-26T15:40:53.367Z,14.47
2019-02-26T15:43:20.382Z,15.30
2019-02-26T15:45:52.068Z,15.33
2019-02-26T15:48:16.603Z,15.47
2019-02-26T15:50:44.171Z,15.60
2019-02-26T15:53:13.049Z,16.30
2019-02-26T15:55:40.658Z,16.33
2019-02-26T15:58:08.190Z,16.60
2019-02-26T16:00:37.700Z,16.00
2019-02-26T16:03:03.367Z,16.70
2019-02-26T16:05:30.913Z,17.00
2019-02-26T16:07:58.484Z,16.70
2019-02-26T16:10:26.032Z,16.07
2019-02-26T16:12:53.599Z,13.10
2019-02-26T16:15:21.242Z,9.40
2019-02-26T16:17:48.811Z,10.10
2019-02-26T16:20:19.010Z,11.17
2019-02-26T16:22:46.622Z,10.97
2019-02-26T16:25:14.162Z,10.60
2019-02-26T16:27:41.703Z,10.20
2019-02-26T16:30:18.262Z,10.17
2019-02-26T16:32:45.836Z,8.90
2019-02-26T16:35:13.833Z,8.10
2019-02-26T16:37:41.603Z,7.70
2019-02-26T16:40:09.267Z,8.10
2019-02-26T16:42:36.802Z,8.00
2019-02-26T16:45:04.362Z,7.13
2019-02-26T16:47:31.971Z,7.30
2019-02-26T16:50:11.795Z,6.80
2019-02-26T16:52:27.743Z,8.00
2019-02-26T16:54:55.696Z,8.13
2019-02-26T16:57:23.239Z,7.90
2019-02-26T16:59:50.920Z,7.90
2019-02-26T17:02:18.500Z,8.50
2019-02-26T17:04:46.035Z,7.57
2019-02-26T17:07:14.587Z,8.90
2019-02-26T17:09:42.122Z,9.27
2019-02-26T17:12:09.683Z,8.53
2019-02-26T17:14:37.991Z,12.83
2019-02-26T17:17:05.565Z,14.37
2019-02-26T17:19:33.113Z,13.50
2019-02-26T17:22:01.837Z,11.90
2019-02-26T17:24:29.583Z,13.07
2019-02-26T17:26:57.413Z,9.63
2019-02-26T17:29:25.022Z,12.50
2019-02-26T17:31:52.598Z,15.77
2019-02-26T17:34:20.617Z,16.03
2019-02-26T17:36:47.747Z,10.90
2019-02-26T17:39:15.338Z,13.30
2019-02-26T17:41:44.827Z,12.17
2019-02-26T17:44:10.504Z,11.70
2019-02-26T17:46:38.051Z,9.00
2019-02-26T17:49:06.347Z,14.17
2019-02-26T17:51:33.912Z,11.03
2019-02-26T17:54:01.966Z,9.53
2019-02-26T17:56:29.047Z,8.27
2019-02-26T17:58:56.608Z,8.17
2019-02-26T18:01:24.141Z,7.77
2019-02-26T18:03:52.667Z,8.50
2019-02-26T18:06:20.231Z,8.20
2019-02-26T18:08:47.787Z,8.50
2019-02-26T18:11:15.314Z,7.57
2019-02-26T18:13:42.844Z,7.00
2019-02-26T18:16:10.398Z,7.00
2019-02-26T18:18:37.935Z,7.30
2019-02-26T18:21:05.977Z,18.40
2019-02-26T18:23:33.090Z,9.90
2019-02-26T18:26:00.620Z,13.77
2019-02-26T18:28:28.179Z,10.70
2019-02-26T18:30:55.734Z,11.80
2019-02-26T18:33:23.291Z,10.90
2019-02-26T18:35:50.824Z,10.30
2019-02-26T18:38:18.359Z,10.80
2019-02-26T18:40:45.925Z,10.77
2019-02-26T18:43:14.433Z,10.60
2019-02-26T18:45:41.826Z,12.20
2019-02-26T18:48:09.381Z,11.10
2019-02-26T18:50:36.943Z,11.77
2019-02-26T18:53:04.475Z,11.50
2019-02-26T18:55:32.663Z,11.05
2019-02-26T18:57:59.620Z,11.07
2019-02-26T19:00:33.646Z,11.80
2019-02-26T19:03:01.191Z,13.80
2019-02-26T19:05:28.764Z,16.07
2019-02-26T19:07:57.008Z,14.50
2019-02-26T19:10:24.556Z,12.40
2019-02-26T19:12:52.123Z,10.50
2019-02-26T19:15:20.355Z,8.43
2019-02-26T19:17:47.918Z,8.07
2019-02-26T19:20:15.594Z,9.63
2019-02-26T19:22:43.054Z,9.63
2019-02-26T19:25:10.595Z,8.40
2019-02-26T19:27:38.119Z,8.10
2019-02-26T19:30:21.482Z,7.33
2019-02-26T19:32:49.014Z,7.67
2019-02-26T19:35:16.567Z,7.73
2019-02-26T19:37:44.102Z,9.10
2019-02-26T19:40:15.847Z,9.32
2019-02-26T19:42:43.370Z,8.27
2019-02-26T19:45:11.814Z,8.83
2019-02-26T19:47:38.492Z,7.60
2019-02-26T19:50:06.976Z,8.90
2019-02-26T19:52:34.506Z,7.70
2019-02-26T19:55:02.831Z,8.23
2019-02-26T19:57:30.870Z,10.27
2019-02-26T19:59:57.995Z,9.30
2019-02-26T20:02:25.532Z,10.00
2019-02-26T20:04:54.245Z,10.60
2019-02-26T20:07:22.654Z,8.90
2019-02-26T20:09:50.934Z,10.20
2019-02-26T20:12:19.470Z,8.70
2019-02-26T20:14:49.015Z,9.60
2019-02-26T20:17:16.478Z,9.90
2019-02-26T20:19:45.939Z,12.00
2019-02-26T20:22:14.141Z,11.87
2019-02-26T20:24:43.757Z,12.67
2019-02-26T20:27:12.027Z,12.60
2019-02-26T20:29:39.986Z,11.23
2019-02-26T20:32:08.119Z,13.63
2019-02-26T20:34:36.468Z,11.97
2019-02-26T20:37:04.978Z,12.23
2019-02-26T20:39:33.841Z,10.10
2019-02-26T20:42:01.799Z,8.70
2019-02-26T20:44:29.781Z,8.40
2019-02-26T20:46:58.673Z,9.53
2019-02-26T20:49:25.972Z,7.50
2019-02-26T20:51:54.188Z,7.10
2019-02-26T20:54:22.776Z,6.57
2019-02-26T20:56:51.252Z,7.00
2019-02-26T20:59:19.582Z,7.33
2019-02-26T21:01:49.514Z,6.77
2019-02-26T21:04:17.774Z,6.40
2019-02-26T21:06:45.879Z,6.87
2019-02-26T21:09:13.931Z,7.13
2019-02-26T21:11:42.191Z,7.30
2019-02-26T21:14:10.495Z,5.60
2019-02-26T21:16:39.093Z,6.30
2019-02-26T21:19:07.184Z,8.00
2019-02-26T21:21:35.868Z,5.90
2019-02-26T21:24:05.059Z,6.63
2019-02-26T21:26:34.879Z,6.47
2019-02-26T21:29:05.541Z,6.20
2019-02-26T21:31:31.959Z,5.60
2019-02-26T21:34:03.744Z,6.13
2019-02-26T21:36:29.243Z,6.03
2019-02-26T21:38:58.041Z,6.07
2019-02-26T21:41:26.461Z,5.30
2019-02-26T21:43:55.487Z,5.10
2019-02-26T21:46:23.857Z,4.97
2019-02-26T21:48:51.870Z,5.33
2019-02-26T21:51:19.911Z,5.20
2019-02-26T21:53:49.186Z,5.40
2019-02-26T21:56:16.473Z,4.70
2019-02-26T21:58:44.218Z,4.80
2019-02-26T22:01:12.218Z,4.90
2019-02-26T22:03:39.730Z,5.20
2019-02-26T22:06:10.765Z,5.40
2019-02-26T22:08:35.251Z,5.20
2019-02-26T22:11:03.162Z,5.20
2019-02-26T22:13:31.883Z,5.00
2019-02-26T22:15:59.488Z,4.70
2019-02-26T22:18:31.221Z,14.77
2019-02-26T22:20:56.308Z,4.30
2019-02-26T22:23:24.010Z,4.67
2019-02-26T22:25:52.652Z,4.27
2019-02-26T22:28:19.498Z,3.83
2019-02-26T22:30:47.284Z,3.90
2019-02-26T22:33:15.330Z,3.60
2019-02-26T22:35:43.296Z,4.53
2019-02-26T22:38:15.060Z,4.37
2019-02-26T22:40:38.891Z,4.87
2019-02-26T22:43:07.175Z,4.10
2019-02-26T22:45:35.297Z,4.23
2019-02-26T22:48:03.314Z,3.90
2019-02-26T22:50:31.228Z,3.67
2019-02-26T22:52:58.977Z,3.90
2019-02-26T22:55:26.777Z,4.00
2019-02-26T22:57:54.667Z,3.70
2019-02-26T23:00:28.371Z,3.60
2019-02-26T23:02:56.155Z,3.93
2019-02-26T23:05:25.614Z,3.97
2019-02-26T23:07:51.421Z,3.53
2019-02-26T23:10:19.052Z,3.20
2019-02-26T23:12:46.606Z,3.37
2019-02-26T23:15:14.659Z,3.37
2019-02-26T23:17:42.727Z,3.70
2019-02-26T23:20:10.498Z,3.30
2019-02-26T23:22:38.495Z,3.40
2019-02-26T23:25:05.474Z,3.60
2019-02-26T23:27:33.034Z,3.40
2019-02-26T23:30:00.563Z,3.47
2019-02-26T23:32:28.127Z,2.97
2019-02-26T23:35:01.595Z,3.30
2019-02-26T23:37:34.308Z,3.50
2019-02-26T23:39:58.475Z,3.30
2019-02-26T23:42:26.032Z,3.57
2019-02-26T23:44:53.591Z,3.87
2019-02-26T23:47:22.423Z,4.03
2019-02-26T23:49:49.493Z,3.20
2019-02-26T23:52:17.055Z,3.43
2019-02-26T23:54:45.608Z,4.10
2019-02-26T23:57:13.235Z,3.40
2019-02-26T23:59:40.801Z,3.50
